Time;durP1;ratioP1;P1;durP2;ratioP2;P2;SDS_P1;SDS_P2;PMS_P1;PMS_P2;Temp;Humidity;BMP_temperature;BMP_pressure;BME280_temperature;BME280_humidity;BME280_pressure;Samples;Min_cycle;Max_cycle;Signal;HPM_P1;HPM_P2
2021/04/18 00:01:59;;;;;;;7.45;3.33;;;12.50;27.90;;;;;;4877439;29;20050;-91
2021/04/18 00:04:25;;;;;;;4.40;3.20;;;12.40;27.90;;;;;;4862095;29;20455;-91
2021/04/18 00:06:52;;;;;;;6.18;3.28;;;12.40;28.00;;;;;;4878829;29;20079;-91
2021/04/18 00:09:18;;;;;;;11.27;3.83;;;12.30;28.00;;;;;;4894421;29;20031;-92
2021/04/18 00:11:44;;;;;;;9.30;3.63;;;12.30;28.00;;;;;;4849777;29;20040;-90
2021/04/18 00:14:11;;;;;;;5.63;3.53;;;12.30;28.10;;;;;;4864652;29;20035;-91
2021/04/18 00:16:37;;;;;;;7.70;3.45;;;12.20;28.00;;;;;;4862118;29;20043;-90
2021/04/18 00:19:04;;;;;;;5.75;3.00;;;12.20;28.10;;;;;;4864869;29;20535;-91
2021/04/18 00:21:31;;;;;;;4.22;3.08;;;12.10;28.10;;;;;;4876169;29;20045;-93
2021/04/18 00:23:57;;;;;;;7.03;3.22;;;12.10;28.30;;;;;;4850718;29;20047;-92
2021/04/18 00:26:23;;;;;;;4.63;3.20;;;12.00;28.10;;;;;;4847447;29;20043;-91
2021/04/18 00:28:50;;;;;;;4.35;3.30;;;12.00;28.20;;;;;;4856848;29;20059;-89
2021/04/18 00:31:17;;;;;;;7.15;3.53;;;11.90;28.20;;;;;;4882921;29;20031;-91
2021/04/18 00:33:43;;;;;;;;;;;11.90;28.30;;;;;;4879375;29;20119;-92
2021/04/18 00:36:09;;;;;;;11.23;3.70;;;11.90;28.30;;;;;;4884050;29;19941;-92
2021/04/18 00:38:36;;;;;;;5.18;3.58;;;11.90;28.20;;;;;;4869959;29;20035;-92
2021/04/18 00:41:04;;;;;;;6.20;3.60;;;11.80;28.20;;;;;;4870871;29;20049;-92
2021/04/18 00:43:30;;;;;;;5.50;3.30;;;11.70;28.30;;;;;;4886869;29;20410;-91
2021/04/18 00:45:56;;;;;;;8.13;3.45;;;11.70;28.40;;;;;;4877976;29;20043;-92
2021/04/18 00:48:23;;;;;;;4.60;3.30;;;11.70;28.50;;;;;;4894279;29;20046;-93
2021/04/18 00:50:49;;;;;;;4.35;3.25;;;11.70;28.50;;;;;;4860240;29;20043;-92
2021/04/18 00:53:15;;;;;;;6.80;3.45;;;11.60;28.50;;;;;;4880159;29;20038;-92
2021/04/18 00:55:43;;;;;;;7.10;3.42;;;11.60;28.50;;;;;;4848768;29;20059;-91
2021/04/18 00:58:10;;;;;;;5.80;3.45;;;11.60;28.50;;;;;;4845502;29;20527;-92
2021/04/18 01:00:37;;;;;;;6.05;3.28;;;11.50;28.50;;;;;;4861651;29;20132;-92
2021/04/18 01:03:06;;;;;;;4.35;3.03;;;11.50;28.70;;;;;;4860861;29;20119;-92
2021/04/18 01:05:32;;;;;;;5.82;3.38;;;11.50;28.70;;;;;;4876277;29;20050;-90
2021/04/18 01:07:59;;;;;;;4.38;3.22;;;11.50;28.70;;;;;;4861208;29;20046;-91
2021/04/18 01:10:25;;;;;;;8.23;3.22;;;11.40;28.70;;;;;;4863281;29;20046;-92
2021/04/18 01:12:52;;;;;;;6.45;3.20;;;11.40;28.70;;;;;;4846345;29;20419;-92
2021/04/18 01:15:18;;;;;;;4.82;3.22;;;11.30;28.80;;;;;;4863017;29;20062;-93
2021/04/18 01:17:45;;;;;;;7.78;3.00;;;11.30;28.80;;;;;;4864690;29;20052;-93
2021/04/18 01:20:18;;;;;;;6.68;3.22;;;11.30;28.80;;;;;;4879577;29;20130;-92
2021/04/18 01:22:45;;;;;;;4.40;3.10;;;11.30;28.90;;;;;;4865404;29;20178;-93
2021/04/18 01:25:12;;;;;;;;;;;11.20;28.90;;;;;;4877782;29;20036;-91
2021/04/18 01:27:42;;;;;;;5.15;2.65;;;11.20;29.00;;;;;;4879399;29;19939;-93
2021/04/18 01:30:23;;;;;;;6.43;3.00;;;11.30;28.90;;;;;;4864075;29;20122;-93
2021/04/18 01:32:52;;;;;;;5.53;3.50;;;11.20;28.90;;;;;;4863753;29;20043;-93
2021/04/18 01:35:19;;;;;;;4.78;3.10;;;11.20;28.90;;;;;;4861518;29;20110;-94
2021/04/18 01:37:45;;;;;;;5.20;3.42;;;11.20;28.90;;;;;;4862884;29;20054;-91
2021/04/18 01:40:14;;;;;;;8.75;3.83;;;11.20;29.00;;;;;;4846505;29;20114;-93
2021/04/18 01:42:41;;;;;;;5.00;3.15;;;11.20;29.00;;;;;;4862112;29;20036;-92
2021/04/18 01:45:09;;;;;;;7.18;2.65;;;11.20;29.00;;;;;;4860711;29;20039;-92
2021/04/18 01:47:35;;;;;;;4.25;2.78;;;11.20;29.00;;;;;;4862343;29;20035;-92
2021/04/18 01:50:03;;;;;;;3.20;2.85;;;11.20;29.10;;;;;;4861878;29;20035;-93
2021/04/18 01:52:29;;;;;;;5.05;2.67;;;11.20;28.90;;;;;;4862077;29;20076;-90
2021/04/18 01:54:56;;;;;;;4.82;3.10;;;11.20;28.90;;;;;;4860845;29;20047;-93
2021/04/18 01:57:22;;;;;;;7.50;2.97;;;11.30;28.90;;;;;;4862183;29;20518;-91
2021/04/18 01:59:48;;;;;;;5.40;2.75;;;11.30;29.00;;;;;;4865120;29;20079;-90
2021/04/18 02:02:15;;;;;;;5.18;2.70;;;11.40;28.90;;;;;;4867161;29;20039;-93
2021/04/18 02:04:41;;;;;;;4.47;3.08;;;11.40;28.80;;;;;;4849471;29;20434;-92
2021/04/18 02:07:08;;;;;;;6.15;2.97;;;11.40;28.90;;;;;;4880893;29;20541;-93
2021/04/18 02:09:35;;;;;;;5.32;2.90;;;11.40;28.80;;;;;;4865226;29;20507;-93
2021/04/18 02:12:05;;;;;;;3.22;2.80;;;11.40;28.80;;;;;;4863576;29;20036;-92
2021/04/18 02:14:33;;;;;;;3.63;2.63;;;11.40;28.70;;;;;;4865397;29;20082;-94
2021/04/18 02:17:00;;;;;;;4.40;2.72;;;11.40;28.70;;;;;;4849614;29;20542;-94
2021/04/18 02:19:26;;;;;;;3.95;2.72;;;11.40;28.80;;;;;;4867974;29;20043;-93
2021/04/18 02:21:53;;;;;;;6.65;2.90;;;11.50;28.80;;;;;;4872826;29;20039;-92
2021/04/18 02:24:19;;;;;;;5.10;2.78;;;11.50;29.70;;;;;;4872241;29;20118;-93
2021/04/18 02:26:45;;;;;;;3.60;2.75;;;11.50;28.80;;;;;;4865460;29;20043;-91
2021/04/18 02:29:12;;;;;;;4.93;3.03;;;11.50;28.70;;;;;;4866866;29;20040;-93
2021/04/18 02:31:38;;;;;;;5.65;3.30;;;11.60;28.70;;;;;;4870132;29;20137;-92
2021/04/18 02:34:04;;;;;;;4.05;2.90;;;11.60;28.60;;;;;;4867772;29;20035;-92
2021/04/18 02:36:31;;;;;;;5.28;3.05;;;11.60;28.60;;;;;;4853849;29;20504;-90
2021/04/18 02:38:57;;;;;;;3.80;2.63;;;11.70;28.70;;;;;;4854149;29;20059;-92
2021/04/18 02:41:23;;;;;;;8.50;3.10;;;11.70;28.80;;;;;;4884931;29;20043;-91
2021/04/18 02:43:50;;;;;;;7.53;3.50;;;11.80;28.70;;;;;;4870819;29;20082;-92
2021/04/18 02:46:16;;;;;;;7.50;3.38;;;11.80;28.60;;;;;;4839295;29;20039;-93
2021/04/18 02:48:43;;;;;;;8.63;3.15;;;11.90;28.60;;;;;;4865170;29;20043;-94
2021/04/18 02:51:09;;;;;;;5.10;3.22;;;12.00;28.60;;;;;;4881606;29;20035;-92
2021/04/18 02:53:36;;;;;;;4.68;2.90;;;12.20;28.80;;;;;;4864160;29;20142;-93
2021/04/18 02:56:02;;;;;;;4.78;3.17;;;12.50;28.60;;;;;;4863957;29;20050;-92
2021/04/18 02:58:29;;;;;;;6.00;2.88;;;12.90;28.50;;;;;;4848958;29;20039;-91
2021/04/18 03:00:55;;;;;;;8.07;3.35;;;13.30;28.10;;;;;;4851229;29;20047;-92
2021/04/18 03:03:22;;;;;;;5.00;2.65;;;13.60;27.80;;;;;;4883140;29;20031;-92
2021/04/18 03:05:48;;;;;;;7.10;3.10;;;13.70;27.10;;;;;;4884080;29;20039;-93
2021/04/18 03:08:14;;;;;;;9.82;3.42;;;13.70;26.90;;;;;;4881875;29;20050;-92
2021/04/18 03:10:41;;;;;;;9.38;3.72;;;13.60;26.80;;;;;;4877607;29;20016;-92
2021/04/18 03:13:07;;;;;;;6.55;2.88;;;13.50;26.80;;;;;;4890872;29;20048;-92
2021/04/18 03:15:33;;;;;;;5.53;3.28;;;13.40;26.80;;;;;;4875483;29;20043;-92
2021/04/18 03:18:01;;;;;;;5.63;2.97;;;13.20;26.90;;;;;;4873826;29;20408;-92
2021/04/18 03:20:29;;;;;;;7.10;3.05;;;13.10;27.00;;;;;;4845911;29;20050;-93
2021/04/18 03:22:56;;;;;;;6.60;2.92;;;13.00;27.20;;;;;;4892688;29;20036;-93
2021/04/18 03:25:23;;;;;;;3.65;2.85;;;12.90;27.40;;;;;;4877624;29;20099;-92
2021/04/18 03:27:49;;;;;;;6.68;2.92;;;12.90;27.50;;;;;;4846775;29;20043;-92
2021/04/18 03:30:16;;;;;;;4.43;2.92;;;12.90;27.60;;;;;;4888990;29;20051;-93
2021/04/18 03:32:42;;;;;;;5.38;3.00;;;12.90;27.70;;;;;;4862910;29;20032;-92
2021/04/18 03:35:13;;;;;;;6.03;3.13;;;12.90;27.60;;;;;;5070754;23;20048;-93
2021/04/18 03:37:40;;;;;;;6.40;3.38;;;12.90;27.60;;;;;;4850490;29;20049;-95
2021/04/18 03:40:08;;;;;;;16.40;4.53;;;13.00;27.60;;;;;;4850645;29;20044;-96
2021/04/18 03:42:41;;;;;;;9.65;3.60;;;13.10;27.70;;;;;;4869313;29;20045;-95
2021/04/18 03:47:37;;;;;;;10.15;4.25;;;13.40;28.00;;;;;;4881733;29;20051;-91
2021/04/18 03:50:07;;;;;;;7.78;3.58;;;14.00;28.00;;;;;;4842256;29;20048;-93
2021/04/18 03:52:34;;;;;;;8.27;3.53;;;14.70;27.50;;;;;;4828908;29;20119;-91
2021/04/18 03:55:00;;;;;;;7.22;3.97;;;15.20;27.00;;;;;;4855597;29;20037;-92
2021/04/18 03:57:27;;;;;;;10.52;4.40;;;15.70;26.70;;;;;;4811598;29;20428;-92
2021/04/18 03:59:56;;;;;;;10.60;4.05;;;16.40;26.30;;;;;;4886698;29;20052;-90
2021/04/18 04:02:22;;;;;;;10.55;4.05;;;17.10;25.50;;;;;;4887246;29;20044;-92
2021/04/18 04:04:49;;;;;;;8.73;4.05;;;18.00;24.60;;;;;;4827690;29;20037;-92
2021/04/18 04:07:15;;;;;;;7.07;3.72;;;18.90;23.80;;;;;;4845368;29;20044;-90
2021/04/18 04:09:50;;;;;;;8.63;4.70;;;19.70;22.60;;;;;;4830636;29;20544;-95
2021/04/18 04:12:17;;;;;;;9.43;5.00;;;20.50;21.50;;;;;;4861208;29;20138;-94
2021/04/18 04:14:43;;;;;;;12.73;4.38;;;21.10;20.50;;;;;;4842364;29;20047;-94
2021/04/18 04:17:10;;;;;;;13.85;5.10;;;21.50;19.80;;;;;;4834875;29;20040;-95
2021/04/18 04:19:36;;;;;;;17.38;5.70;;;21.80;19.10;;;;;;4818487;29;20036;-92
2021/04/18 04:22:03;;;;;;;10.43;5.32;;;21.90;18.70;;;;;;4826244;29;20084;-92
2021/04/18 04:24:29;;;;;;;;;;;21.90;18.40;;;;;;4859567;29;20072;-95
2021/04/18 04:26:55;;;;;;;10.32;5.43;;;22.00;18.50;;;;;;4859869;29;20010;-96
2021/04/18 04:29:25;;;;;;;12.35;6.15;;;22.10;18.40;;;;;;4825243;29;20041;-92
2021/04/18 04:31:51;;;;;;;13.65;6.45;;;22.10;18.20;;;;;;4846066;29;20036;-93
2021/04/18 04:34:17;;;;;;;13.68;6.13;;;22.20;17.90;;;;;;4797884;29;20040;-94
2021/04/18 04:36:44;;;;;;;17.00;7.10;;;22.20;17.80;;;;;;4813204;29;20112;-93
2021/04/18 04:39:10;;;;;;;12.65;6.38;;;22.30;17.40;;;;;;4826439;29;20051;-92
2021/04/18 04:41:36;;;;;;;17.10;7.13;;;22.30;17.20;;;;;;4841157;29;20036;-93
2021/04/18 04:44:03;;;;;;;16.25;7.38;;;22.30;17.20;;;;;;4826056;29;20081;-92
2021/04/18 04:46:29;;;;;;;;;;;22.40;17.40;;;;;;4848902;29;20138;-90
2021/04/18 04:48:56;;;;;;;;;;;22.60;17.30;;;;;;4831136;29;19934;-93
2021/04/18 04:51:23;;;;;;;19.50;8.30;;;22.90;17.30;;;;;;4865047;29;19931;-91
2021/04/18 04:54:26;;;;;;;20.23;10.60;;;23.20;16.90;;;;;;4830850;29;20072;-96
2021/04/18 04:57:11;;;;;;;23.70;10.10;;;23.40;16.10;;;;;;5320657;23;20338;-96
2021/04/18 05:06:12;;;;;;;10.43;5.10;;;24.30;15.10;;;;;;5669668;23;21086;-95
2021/04/18 05:14:49;;;;;;;9.60;4.35;;;25.80;12.70;;;;;;5893136;23;20169;-95
2021/04/18 05:17:18;;;;;;;9.13;5.05;;;25.90;13.00;;;;;;4847217;29;20099;-95
2021/04/18 05:25:24;;;;;;;19.95;8.70;;;28.10;11.40;;;;;;4918079;23;20094;-91
2021/04/18 05:28:09;;;;;;;19.70;7.88;;;28.80;11.00;;;;;;4868372;29;20047;-95
2021/04/18 05:30:42;;;;;;;26.58;8.20;;;29.60;10.20;;;;;;4884337;29;20043;-96
2021/04/18 19:10:07;;;;;;;7.20;2.95;;;15.00;23.00;;;;;;5746519;23;19940;31
2021/04/18 19:12:34;;;;;;;6.07;2.95;;;15.00;23.00;;;;;;4863342;29;20483;-93
2021/04/18 19:15:11;;;;;;;9.73;3.30;;;15.00;23.30;;;;;;4895708;29;20126;-91
2021/04/18 19:17:39;;;;;;;;;;;14.90;23.60;;;;;;4893662;29;20057;-93
2021/04/18 19:20:12;;;;;;;5.00;3.08;;;15.00;23.70;;;;;;4881036;29;19959;-91
2021/04/18 19:22:46;;;;;;;6.40;3.35;;;14.90;23.80;;;;;;4880403;29;20043;-91
2021/04/18 19:25:18;;;;;;;5.45;3.13;;;14.90;24.10;;;;;;4864705;29;20119;-92
2021/04/18 19:27:50;;;;;;;6.65;3.35;;;14.80;24.40;;;;;;4892236;29;20050;-91
2021/04/18 19:30:28;;;;;;;10.85;3.75;;;14.90;24.60;;;;;;4879988;29;20047;-93
2021/04/18 19:33:20;;;;;;;7.78;3.65;;;14.80;24.70;;;;;;4906438;29;20043;-93
2021/04/18 19:36:15;;;;;;;10.10;3.60;;;14.80;24.90;;;;;;4896630;29;20051;-94
2021/04/18 19:38:55;;;;;;;7.85;3.85;;;14.80;25.00;;;;;;4910737;29;20043;-93
2021/04/18 19:41:42;;;;;;;9.65;4.20;;;14.80;25.00;;;;;;4906728;29;20050;-95
2021/04/18 19:44:21;;;;;;;10.23;4.10;;;14.70;25.30;;;;;;4894221;29;20085;-93
2021/04/18 19:47:10;;;;;;;8.40;4.33;;;14.70;25.40;;;;;;4871157;29;20043;-92
2021/04/18 19:49:46;;;;;;;12.00;5.28;;;14.70;25.60;;;;;;4868186;29;20302;-92
2021/04/18 19:52:21;;;;;;;10.18;5.00;;;14.70;25.60;;;;;;5176344;23;20051;-93
2021/04/18 19:54:50;;;;;;;11.55;5.00;;;14.60;25.60;;;;;;4879868;29;20043;-92
2021/04/18 19:57:19;;;;;;;13.00;5.28;;;14.60;25.80;;;;;;4876587;29;20114;-92
2021/04/18 19:59:52;;;;;;;12.85;6.10;;;14.60;25.80;;;;;;4846384;29;20127;-93
2021/04/18 20:02:23;;;;;;;12.80;5.43;;;14.60;25.80;;;;;;4848427;29;20135;-93
2021/04/18 20:05:36;;;;;;;12.23;5.90;;;14.60;26.10;;;;;;4879687;29;20076;-93
2021/04/18 20:08:07;;;;;;;11.73;6.05;;;14.50;26.20;;;;;;4862574;29;20086;-93
2021/04/18 20:10:41;;;;;;;11.80;5.85;;;14.50;26.20;;;;;;4878458;29;20058;-95
2021/04/18 20:13:12;;;;;;;14.45;6.65;;;14.50;26.40;;;;;;4833620;29;20047;-92
2021/04/18 20:15:45;;;;;;;20.77;7.70;;;14.50;26.40;;;;;;4896506;29;20048;-94
2021/04/18 20:18:14;;;;;;;13.82;7.25;;;14.50;26.40;;;;;;4881982;29;20051;-94
2021/04/18 20:20:43;;;;;;;15.45;7.13;;;14.40;26.50;;;;;;4883214;29;20038;-96
2021/04/18 20:23:09;;;;;;;16.10;6.90;;;14.40;26.60;;;;;;4867355;29;20503;-94
2021/04/18 20:25:36;;;;;;;17.17;6.45;;;14.40;26.70;;;;;;4878607;29;20074;-91
2021/04/18 20:28:05;;;;;;;16.25;6.80;;;14.40;26.90;;;;;;4864241;29;20084;-94
2021/04/18 20:30:31;;;;;;;17.00;7.40;;;14.30;27.00;;;;;;4861674;29;20119;-92
2021/04/18 20:32:57;;;;;;;16.70;6.88;;;14.30;27.10;;;;;;4874158;29;20590;-93
2021/04/18 20:35:24;;;;;;;17.30;8.15;;;14.30;27.10;;;;;;4891267;29;20035;-92
2021/04/18 20:37:51;;;;;;;15.18;7.15;;;14.30;27.30;;;;;;4844229;29;20079;-93
2021/04/18 20:40:18;;;;;;;17.63;7.78;;;14.30;27.30;;;;;;4873477;29;20526;-90
2021/04/18 20:42:44;;;;;;;;;;;14.20;27.50;;;;;;4888923;29;20040;-90
2021/04/18 20:45:12;;;;;;;20.83;5.32;;;14.20;27.60;;;;;;4855180;29;19930;-89
2021/04/18 20:47:38;;;;;;;24.67;6.68;;;14.20;27.90;;;;;;4855537;29;20068;-91
2021/04/18 20:50:06;;;;;;;21.08;7.15;;;14.20;27.70;;;;;;4856727;29;20115;-91
2021/04/18 20:52:32;;;;;;;20.35;6.30;;;14.10;27.90;;;;;;4856126;29;20468;-91
2021/04/18 20:54:59;;;;;;;13.23;6.50;;;14.20;28.00;;;;;;4856325;29;20058;-91
2021/04/18 20:57:25;;;;;;;20.73;7.63;;;14.10;28.00;;;;;;4841262;29;20058;-91
2021/04/18 20:59:52;;;;;;;19.45;7.40;;;14.20;28.10;;;;;;4856041;29;20054;-93
2021/04/18 21:02:18;;;;;;;15.55;5.00;;;14.20;28.10;;;;;;4841434;29;20032;-92
2021/04/18 21:04:45;;;;;;;20.95;7.63;;;14.10;28.30;;;;;;4876962;29;20118;-92
2021/04/18 21:07:11;;;;;;;13.38;6.07;;;14.10;28.30;;;;;;4858650;29;20050;-92
2021/04/18 21:09:37;;;;;;;20.35;7.45;;;14.10;28.30;;;;;;4860150;29;20103;-92
2021/04/18 21:12:05;;;;;;;16.73;7.57;;;14.10;28.40;;;;;;4889459;29;20040;-91
2021/04/18 21:14:31;;;;;;;11.15;4.95;;;14.10;28.40;;;;;;4855521;29;20038;-90
2021/04/18 21:16:57;;;;;;;17.27;7.10;;;14.10;28.50;;;;;;4855163;29;20040;-95
2021/04/18 21:19:24;;;;;;;16.98;6.32;;;14.00;28.60;;;;;;4855292;29;20055;-92
2021/04/18 21:21:50;;;;;;;14.88;6.95;;;14.00;28.70;;;;;;4883948;29;20042;-91
2021/04/18 21:24:16;;;;;;;17.35;6.43;;;14.00;28.70;;;;;;4862454;29;20047;-90
2021/04/18 21:26:43;;;;;;;22.92;7.80;;;13.90;28.70;;;;;;4913726;29;20040;-91
2021/04/18 21:29:09;;;;;;;21.77;9.80;;;13.90;28.70;;;;;;4865331;29;20045;-91
2021/04/18 21:31:35;;;;;;;18.83;8.63;;;13.90;28.70;;;;;;4897472;29;20043;-90
2021/04/18 21:34:02;;;;;;;21.20;7.80;;;13.90;28.90;;;;;;4891709;29;20023;-90
2021/04/18 21:36:29;;;;;;;20.50;9.38;;;13.80;29.00;;;;;;4894498;29;20115;-90
2021/04/18 21:38:55;;;;;;;21.73;9.63;;;13.80;29.10;;;;;;4862505;29;20039;-89
2021/04/18 21:41:22;;;;;;;27.05;11.80;;;13.70;29.10;;;;;;4861975;29;20110;-90
2021/04/18 21:43:48;;;;;;;26.23;11.65;;;13.70;29.00;;;;;;4873630;29;20076;-90
2021/04/18 21:46:16;;;;;;;27.00;12.10;;;13.60;29.10;;;;;;4886350;29;20046;-90
2021/04/18 21:48:44;;;;;;;23.02;10.60;;;13.60;29.20;;;;;;4898530;29;20087;-91
2021/04/18 21:51:12;;;;;;;23.15;10.40;;;13.60;29.30;;;;;;4877776;29;20106;-92
2021/04/18 21:53:40;;;;;;;25.35;10.85;;;13.50;29.40;;;;;;4847317;29;20545;-90
2021/04/18 21:56:08;;;;;;;22.00;9.15;;;13.50;29.50;;;;;;4862724;29;20178;-92
2021/04/18 21:58:34;;;;;;;26.48;9.60;;;13.40;29.40;;;;;;4845587;29;20044;-91
2021/04/18 22:01:02;;;;;;;29.92;11.55;;;13.40;29.40;;;;;;4890939;29;20601;-91
2021/04/18 22:03:28;;;;;;;34.28;12.75;;;13.40;29.50;;;;;;4866478;29;20041;-93
2021/04/18 22:05:55;;;;;;;30.10;12.38;;;13.30;29.60;;;;;;4896826;29;20030;-91
2021/04/18 22:08:21;;;;;;;34.28;14.07;;;13.30;29.60;;;;;;4912643;29;20036;-92
2021/04/18 22:10:48;;;;;;;28.70;12.45;;;13.20;29.60;;;;;;4907967;29;20035;-93
2021/04/18 22:13:14;;;;;;;29.27;12.85;;;13.20;29.70;;;;;;4890982;29;20035;-92
2021/04/18 22:15:40;;;;;;;25.83;11.95;;;13.10;29.80;;;;;;4879025;29;20040;-92
2021/04/18 22:18:07;;;;;;;24.23;10.70;;;13.10;29.90;;;;;;4880931;29;20039;-93
2021/04/18 22:20:33;;;;;;;34.35;12.10;;;13.10;29.80;;;;;;4852321;29;20422;-93
2021/04/18 22:22:59;;;;;;;35.35;13.00;;;13.00;30.00;;;;;;4883885;29;20039;-93
2021/04/18 22:25:26;;;;;;;26.65;9.93;;;13.00;30.10;;;;;;4893271;29;20031;-94
2021/04/18 22:27:52;;;;;;;23.15;7.80;;;12.90;30.10;;;;;;4893878;29;20122;-92
2021/04/18 22:30:19;;;;;;;18.17;7.60;;;12.90;30.10;;;;;;4875035;29;20100;-93
2021/04/18 22:32:46;;;;;;;27.45;7.72;;;12.80;30.00;;;;;;4891351;29;20047;-94
2021/04/18 22:35:12;;;;;;;21.67;6.80;;;12.80;30.10;;;;;;4882246;29;20039;-91
2021/04/18 22:37:39;;;;;;;22.52;6.78;;;12.70;30.30;;;;;;4871600;29;20039;-92
2021/04/18 22:40:06;;;;;;;17.52;6.40;;;12.70;30.30;;;;;;4893456;29;20058;-91
2021/04/18 22:42:33;;;;;;;22.23;6.55;;;12.70;30.30;;;;;;4908934;29;20111;-91
2021/04/18 22:44:59;;;;;;;16.35;5.63;;;12.60;30.40;;;;;;4864536;29;20118;-92
2021/04/18 22:47:26;;;;;;;16.90;6.32;;;12.60;30.40;;;;;;4893160;29;20059;-91
2021/04/18 22:49:52;;;;;;;20.30;6.45;;;12.50;30.60;;;;;;4889230;29;20035;-92
2021/04/18 22:52:18;;;;;;;14.23;5.22;;;12.50;30.70;;;;;;4863416;29;20557;-90
2021/04/18 22:54:45;;;;;;;16.92;5.60;;;12.50;30.70;;;;;;4893982;29;20063;-92
2021/04/18 22:57:11;;;;;;;18.55;6.47;;;12.40;30.80;;;;;;4862289;29;20040;-91
2021/04/18 22:59:37;;;;;;;14.73;6.28;;;12.30;30.80;;;;;;4863186;29;20106;-91
2021/04/18 23:02:04;;;;;;;15.40;6.63;;;12.30;30.90;;;;;;4894241;29;20035;-93
2021/04/18 23:04:30;;;;;;;22.63;6.30;;;12.20;31.00;;;;;;4848169;29;20044;-91
2021/04/18 23:06:57;;;;;;;13.32;6.20;;;12.20;31.10;;;;;;4863564;29;20043;-90
2021/04/18 23:09:23;;;;;;;14.95;6.40;;;12.20;31.10;;;;;;4878410;29;20540;-91
2021/04/18 23:11:49;;;;;;;13.85;6.25;;;12.10;31.10;;;;;;4877495;29;20050;-91
2021/04/18 23:14:18;;;;;;;13.13;5.40;;;12.10;31.20;;;;;;4878255;29;20063;-91
2021/04/18 23:16:46;;;;;;;16.30;6.25;;;12.00;31.30;;;;;;4869875;29;20080;-92
2021/04/18 23:19:13;;;;;;;14.68;5.78;;;12.00;31.40;;;;;;4863728;29;20043;-91
2021/04/18 23:21:39;;;;;;;14.18;5.93;;;11.90;31.50;;;;;;4862625;29;20043;-91
2021/04/18 23:24:07;;;;;;;12.02;5.95;;;11.90;31.50;;;;;;4846482;29;20546;-92
2021/04/18 23:26:34;;;;;;;12.45;5.40;;;11.90;31.60;;;;;;4863245;29;20087;-91
2021/04/18 23:29:01;;;;;;;8.38;5.07;;;11.90;31.60;;;;;;4877612;29;20044;-93
2021/04/18 23:31:27;;;;;;;11.55;4.95;;;11.80;31.70;;;;;;4879216;29;20066;-92
2021/04/18 23:33:55;;;;;;;9.75;5.13;;;11.80;31.70;;;;;;4864695;29;20098;-92
2021/04/18 23:36:21;;;;;;;11.25;5.75;;;11.70;31.90;;;;;;4850983;29;20040;-93
2021/04/18 23:38:47;;;;;;;10.85;4.45;;;11.70;31.90;;;;;;4899300;29;20142;-89
2021/04/18 23:41:14;;;;;;;7.75;4.43;;;11.70;32.10;;;;;;4852560;29;20558;-90
2021/04/18 23:43:40;;;;;;;10.25;4.88;;;11.70;32.10;;;;;;4868531;29;20039;-91
2021/04/18 23:46:07;;;;;;;7.00;4.15;;;11.60;32.10;;;;;;4872079;29;20039;-90
2021/04/18 23:48:33;;;;;;;14.65;4.30;;;11.60;32.00;;;;;;4891920;29;20035;-91
2021/04/18 23:51:01;;;;;;;8.45;5.00;;;11.60;32.10;;;;;;4870419;29;20035;-91
2021/04/18 23:53:27;;;;;;;8.18;4.53;;;11.60;32.00;;;;;;4891539;29;20043;-92
2021/04/18 23:55:53;;;;;;;7.05;3.90;;;11.50;32.10;;;;;;4880491;29;20069;-91
2021/04/18 23:58:20;;;;;;;5.72;3.70;;;11.50;32.10;;;;;;4864072;29;20134;-92
